Time;durP1;ratioP1;P1;durP2;ratioP2;P2;SDS_P1;SDS_P2;PMS_P1;PMS_P2;Temp;Humidity;BMP_temperature;BMP_pressure;BME280_temperature;BME280_humidity;BME280_pressure;Samples;Min_cycle;Max_cycle;Signal;HPM_P1;HPM_P2
2023/06/16 00:01:57;;;;;;;6.40;5.87;;;18.50;99.90;;;;;;5082809;28;20469;-77
2023/06/16 00:04:56;;;;;;;6.83;6.30;;;18.50;99.90;;;;;;5081460;28;20453;-78
2023/06/16 00:07:42;;;;;;;6.90;6.17;;;18.50;99.90;;;;;;5081185;28;20461;-77
2023/06/16 00:11:00;;;;;;;6.60;6.00;;;18.40;99.90;;;;;;5081068;28;20457;-78
2023/06/16 00:14:24;;;;;;;6.53;5.93;;;18.40;99.90;;;;;;5086627;28;20569;-78
2023/06/16 00:20:35;;;;;;;6.30;5.80;;;18.00;99.90;;;;;;5058495;28;20502;-78
2023/06/16 00:23:24;;;;;;;6.50;6.00;;;18.00;99.90;;;;;;5095906;28;20494;-76
2023/06/16 00:26:21;;;;;;;6.87;6.23;;;17.80;99.90;;;;;;5095781;28;20472;-78
2023/06/16 00:32:09;;;;;;;6.27;5.67;;;17.60;99.90;;;;;;5091555;28;20589;-76
2023/06/16 00:34:53;;;;;;;6.97;6.47;;;17.70;99.90;;;;;;5094949;28;20439;-77
2023/06/16 00:37:42;;;;;;;7.10;6.40;;;17.60;99.90;;;;;;5095096;28;20482;-79
2023/06/16 00:40:50;;;;;;;6.13;5.70;;;17.60;99.90;;;;;;5093888;28;20451;-77
2023/06/16 00:43:31;;;;;;;6.97;6.40;;;17.50;99.90;;;;;;5092625;28;20467;-77
2023/06/16 00:46:32;;;;;;;8.23;6.20;;;17.50;99.90;;;;;;5082151;28;20449;-77
2023/06/16 00:49:37;;;;;;;6.80;6.20;;;17.50;99.90;;;;;;5081824;28;20538;-77
2023/06/16 00:52:37;;;;;;;8.23;6.53;;;17.50;99.90;;;;;;5082581;28;20482;-77
2023/06/16 01:04:47;;;;;;;8.00;7.30;;;17.40;99.90;;;;;;5080539;28;20451;-77
2023/06/16 01:07:36;;;;;;;10.70;6.73;;;17.40;99.90;;;;;;5082486;28;20452;-78
2023/06/16 01:10:42;;;;;;;9.43;6.60;;;17.40;99.90;;;;;;5085269;28;20454;-77
2023/06/16 01:13:30;;;;;;;7.77;7.07;;;17.40;99.90;;;;;;5087212;28;20505;-77
2023/06/16 01:19:06;;;;;;;7.67;6.87;;;17.30;99.90;;;;;;5086717;28;20422;-78
2023/06/16 01:22:12;;;;;;;7.33;6.73;;;17.20;99.90;;;;;;5082675;28;20484;-78
2023/06/16 01:25:03;;;;;;;7.83;7.03;;;17.10;99.90;;;;;;5084504;28;20454;-77
2023/06/16 01:32:10;;;;;;;7.30;6.70;;;17.00;99.90;;;;;;4949564;28;20539;-78
2023/06/16 01:34:50;;;;;;;;;;;;;;;;;;;;;
2023/06/16 01:37:22;;;;;;;8.17;7.50;;;17.00;99.90;;;;;;5083818;28;20427;-78
2023/06/16 01:39:57;;;;;;;7.87;7.17;;;16.90;99.90;;;;;;5083459;28;20454;-78
2023/06/16 01:42:43;;;;;;;7.70;7.10;;;16.90;99.90;;;;;;5081606;28;20497;-80
2023/06/16 01:45:26;;;;;;;8.43;7.67;;;16.80;99.90;;;;;;5080306;28;20453;-80
2023/06/16 01:48:07;;;;;;;7.90;7.10;;;16.80;99.90;;;;;;5080607;28;20513;-79
2023/06/16 01:50:58;;;;;;;9.43;8.57;;;16.80;99.90;;;;;;5082950;28;20450;-78
2023/06/16 01:53:55;;;;;;;7.90;7.10;;;16.70;99.90;;;;;;5082352;28;20855;-78
2023/06/16 01:57:03;;;;;;;7.37;6.77;;;16.60;99.90;;;;;;5080420;28;20940;-78
2023/06/16 01:59:38;;;;;;;7.90;6.83;;;16.60;99.90;;;;;;5078618;28;20456;-79
2023/06/16 02:02:31;;;;;;;8.63;7.83;;;16.60;99.90;;;;;;5078656;28;20478;-77
2023/06/16 02:08:57;;;;;;;7.77;7.17;;;16.60;99.90;;;;;;5073109;28;20443;-79
2023/06/16 02:11:40;;;;;;;8.53;7.77;;;16.50;99.90;;;;;;5069848;28;20454;-78
2023/06/16 02:14:37;;;;;;;8.70;7.83;;;16.50;99.90;;;;;;5075843;28;20585;-79
2023/06/16 02:17:21;;;;;;;8.83;8.00;;;16.40;99.90;;;;;;5077034;28;20550;-79
2023/06/16 02:20:23;;;;;;;8.40;7.60;;;16.30;99.90;;;;;;5076494;28;20472;-79
2023/06/16 02:23:08;;;;;;;8.30;7.60;;;16.30;99.90;;;;;;5095984;28;20835;-78
2023/06/16 02:25:58;;;;;;;15.57;8.17;;;16.20;99.90;;;;;;5096093;28;20449;-78
2023/06/16 02:28:29;;;;;;;8.63;7.83;;;16.20;99.90;;;;;;5097425;28;20811;-77
2023/06/16 02:31:06;;;;;;;9.37;8.63;;;16.20;99.90;;;;;;5097666;28;20538;-78
2023/06/16 02:33:50;;;;;;;8.30;7.60;;;16.20;99.90;;;;;;5100532;28;20512;-78
2023/06/16 02:36:33;;;;;;;9.20;8.30;;;16.10;99.90;;;;;;5103397;28;20642;-78
2023/06/16 02:39:18;;;;;;;8.83;7.93;;;16.10;99.90;;;;;;5103676;28;20444;-78
2023/06/16 02:45:13;;;;;;;13.40;7.73;;;16.20;99.90;;;;;;5102544;28;20421;-78
2023/06/16 02:48:06;;;;;;;9.47;8.67;;;16.20;99.90;;;;;;5101580;28;20457;-78
2023/06/16 02:53:46;;;;;;;8.80;8.00;;;16.10;99.90;;;;;;5086765;28;20483;-78
2023/06/16 02:59:48;;;;;;;9.73;8.70;;;16.00;99.90;;;;;;5097252;28;21263;-78
2023/06/16 03:06:11;;;;;;;9.07;8.27;;;16.00;99.90;;;;;;5097451;28;20443;-78
2023/06/16 03:09:02;;;;;;;;;;;;;;;;;;;;;
2023/06/16 03:11:54;;;;;;;9.60;8.60;;;16.00;99.90;;;;;;5101086;28;20468;-78
2023/06/16 03:14:54;;;;;;;8.17;7.10;;;16.00;99.90;;;;;;5102094;28;20459;-80
2023/06/16 03:17:51;;;;;;;8.60;7.80;;;16.00;99.90;;;;;;5103331;28;20453;-77
2023/06/16 03:20:34;;;;;;;8.47;7.77;;;16.00;99.90;;;;;;5095772;28;20446;-77
2023/06/16 03:23:11;;;;;;;8.63;7.73;;;16.00;99.90;;;;;;5078638;28;20466;-78
2023/06/16 03:26:12;;;;;;;9.03;8.03;;;16.00;99.90;;;;;;5079136;28;20441;-79
2023/06/16 03:29:11;;;;;;;9.93;9.03;;;15.90;99.90;;;;;;5079951;28;20450;-78
2023/06/16 03:35:35;;;;;;;9.17;8.27;;;15.80;99.90;;;;;;5029711;28;20439;-78
2023/06/16 03:38:11;;;;;;;9.40;8.40;;;15.80;99.90;;;;;;5064861;28;20565;-79
2023/06/16 03:40:53;;;;;;;8.90;7.87;;;16.00;99.90;;;;;;5081357;28;20460;-78
2023/06/16 03:43:26;;;;;;;9.50;8.70;;;15.80;99.90;;;;;;5081683;28;20485;-78
2023/06/16 03:46:08;;;;;;;10.10;9.10;;;15.80;99.90;;;;;;5083331;28;20533;-77
2023/06/16 03:48:42;;;;;;;9.20;8.30;;;15.80;99.90;;;;;;5080504;28;20445;-78
2023/06/16 03:51:49;;;;;;;9.63;8.67;;;15.80;99.90;;;;;;5079886;28;20521;-77
2023/06/16 03:57:36;;;;;;;10.37;8.87;;;15.90;99.90;;;;;;5077497;28;20949;-77
2023/06/16 04:09:02;;;;;;;9.03;8.13;;;15.60;99.90;;;;;;5063434;28;20484;-78
2023/06/16 04:11:58;;;;;;;9.93;9.03;;;15.90;99.90;;;;;;5077650;28;20508;-80
2023/06/16 04:21:25;;;;;;;9.97;9.00;;;15.80;99.90;;;;;;5086088;28;20790;-79
2023/06/16 04:24:24;;;;;;;11.53;10.53;;;15.90;99.90;;;;;;5101461;28;20473;-78
2023/06/16 04:27:27;;;;;;;9.70;8.70;;;15.90;99.90;;;;;;5102112;28;20464;-79
2023/06/16 04:30:20;;;;;;;8.07;7.40;;;15.90;99.90;;;;;;5101553;28;20452;-78
2023/06/16 04:46:32;;;;;;;13.57;9.50;;;16.10;99.90;;;;;;4942555;29;20439;-77
2023/06/16 04:49:38;;;;;;;10.27;9.13;;;16.20;99.90;;;;;;4944183;29;20487;-81
2023/06/16 04:52:52;;;;;;;11.00;10.00;;;16.20;99.90;;;;;;4930875;29;20468;-81
2023/06/16 04:55:31;;;;;;;13.70;9.40;;;16.30;99.90;;;;;;4942868;29;20448;-79
2023/06/16 04:58:36;;;;;;;10.20;9.23;;;16.30;99.90;;;;;;5000151;28;20883;-79
2023/06/16 05:01:34;;;;;;;10.47;9.27;;;16.40;99.90;;;;;;5104280;28;20456;-79
2023/06/16 05:04:15;;;;;;;9.90;8.90;;;16.60;99.90;;;;;;5097383;28;20485;-79
2023/06/16 05:10:20;;;;;;;8.90;8.20;;;16.80;99.90;;;;;;5067219;28;20449;-79
2023/06/16 05:16:07;;;;;;;9.83;8.80;;;16.90;99.90;;;;;;5098689;28;20437;-79
2023/06/16 05:22:27;;;;;;;8.87;8.07;;;17.20;99.90;;;;;;5083596;28;20457;-78
2023/06/16 05:31:53;;;;;;;9.50;8.50;;;17.50;99.90;;;;;;5074404;28;20461;-77
2023/06/16 06:06:12;;;;;;;10.67;9.30;;;18.60;99.90;;;;;;4885782;29;20448;-78
2023/06/16 06:42:17;;;;;;;9.10;8.20;;;;;;;;;;4833171;29;20506;-80
2023/06/16 06:45:19;;;;;;;9.40;8.50;;;;;;;;;;4851079;29;20586;-79
2023/06/16 06:53:44;;;;;;;9.50;8.60;;;;;;;;;;4964995;28;20635;-79
2023/06/16 06:56:18;;;;;;;10.07;9.20;;;;;;;;;;5039741;28;20456;-79
2023/06/16 07:06:09;;;;;;;9.47;8.63;;;20.60;99.90;;;;;;5040717;28;20439;-79
2023/06/16 07:08:46;;;;;;;8.60;7.80;;;20.80;99.90;;;;;;5062219;28;20486;-79
2023/06/16 07:12:00;;;;;;;;;;;;;;;;;;;;;
2023/06/16 07:14:52;;;;;;;9.73;8.73;;;20.90;99.90;;;;;;5061895;28;20479;-78
2023/06/16 07:17:45;;;;;;;10.27;8.40;;;20.90;99.90;;;;;;5062537;28;20486;-78
2023/06/16 07:20:27;;;;;;;9.87;8.17;;;21.10;99.90;;;;;;5064123;28;20490;-79
2023/06/16 07:23:05;;;;;;;10.20;8.20;;;21.20;99.90;;;;;;5064214;28;20468;-78
2023/06/16 07:25:52;;;;;;;10.17;8.57;;;21.30;99.90;;;;;;5068024;28;20454;-79
2023/06/16 07:28:56;;;;;;;10.37;8.80;;;21.40;99.90;;;;;;5068266;28;20452;-77
2023/06/16 07:32:42;;;;;;;8.40;7.50;;;21.50;99.90;;;;;;4964605;28;20456;-80
2023/06/16 07:36:23;;;;;;;9.33;7.97;;;21.60;99.90;;;;;;4963680;29;20484;-78
2023/06/16 07:45:31;;;;;;;13.00;7.30;;;22.30;99.90;;;;;;5044082;28;20592;-79
2023/06/16 07:48:10;;;;;;;;;;;;;;;;;;;;;
2023/06/16 07:51:07;;;;;;;8.10;6.20;;;22.40;99.90;;;;;;5083631;28;20522;-78
2023/06/16 07:54:31;;;;;;;8.97;6.23;;;22.40;99.90;;;;;;5080650;28;20477;-79
2023/06/16 07:57:26;;;;;;;8.43;6.80;;;22.60;99.90;;;;;;5068532;28;20454;-78
2023/06/16 08:00:27;;;;;;;6.60;5.97;;;22.70;99.90;;;;;;5081854;28;20455;-78
2023/06/16 08:03:10;;;;;;;5.30;4.80;;;22.90;99.90;;;;;;5081479;28;20527;-78
2023/06/16 08:09:19;;;;;;;5.87;5.37;;;22.90;99.90;;;;;;5044902;28;20437;-80
2023/06/16 08:12:14;;;;;;;5.50;5.03;;;23.00;99.90;;;;;;5081190;28;20469;-77
2023/06/16 08:19:19;;;;;;;7.70;5.20;;;23.20;99.90;;;;;;5040510;28;20483;-78
2023/06/16 08:25:17;;;;;;;6.30;4.47;;;23.10;96.70;;;;;;4960377;29;20444;-77
2023/06/16 08:34:41;;;;;;;6.90;4.90;;;23.60;92.50;;;;;;4932287;29;20473;-78
2023/06/16 08:37:49;;;;;;;5.10;4.60;;;23.70;93.70;;;;;;4946312;29;20465;-74
2023/06/16 08:40:57;;;;;;;5.03;4.53;;;23.80;90.80;;;;;;4947016;29;20547;-78
2023/06/16 08:43:28;;;;;;;5.33;4.80;;;24.00;89.70;;;;;;4946141;29;20466;-79
2023/06/16 08:46:02;;;;;;;5.37;4.63;;;23.90;89.80;;;;;;4987905;28;20447;-77
2023/06/16 08:48:39;;;;;;;5.10;4.60;;;24.20;90.00;;;;;;5023164;28;20476;-78
2023/06/16 08:51:24;;;;;;;6.77;4.60;;;24.40;89.40;;;;;;5062255;28;20471;-76
2023/06/16 08:53:57;;;;;;;4.53;4.13;;;24.50;84.40;;;;;;5061912;28;20503;-78
2023/06/16 08:56:29;;;;;;;4.67;4.23;;;24.60;83.20;;;;;;5062331;28;20492;-78
2023/06/16 08:58:58;;;;;;;4.93;4.50;;;24.80;81.10;;;;;;5063368;28;20971;-78
2023/06/16 09:01:30;;;;;;;4.90;4.43;;;24.80;79.80;;;;;;5062169;28;20913;-77
2023/06/16 09:04:03;;;;;;;4.93;4.43;;;24.90;78.10;;;;;;5059771;28;20449;-78
2023/06/16 09:06:56;;;;;;;5.10;4.20;;;25.10;78.70;;;;;;5059137;28;20460;-76
2023/06/16 09:09:28;;;;;;;7.10;4.40;;;24.90;76.50;;;;;;5059803;28;20483;-78
2023/06/16 09:12:07;;;;;;;5.37;4.97;;;25.00;78.10;;;;;;5060753;28;20480;-76
2023/06/16 09:14:51;;;;;;;4.67;4.07;;;24.90;75.20;;;;;;5059168;28;20538;-76
2023/06/16 09:17:29;;;;;;;5.27;4.87;;;25.20;75.00;;;;;;5059398;28;20503;-77
2023/06/16 09:20:20;;;;;;;4.90;4.47;;;25.30;73.90;;;;;;5061641;28;20451;-77
2023/06/16 09:23:23;;;;;;;5.87;4.27;;;25.30;74.10;;;;;;5064442;28;20474;-77
2023/06/16 09:25:57;;;;;;;11.80;4.77;;;25.30;73.60;;;;;;5087124;28;20448;-78
2023/06/16 09:28:39;;;;;;;5.60;4.20;;;25.60;73.50;;;;;;5087915;28;20511;-78
2023/06/16 09:31:12;;;;;;;5.00;4.60;;;25.50;70.80;;;;;;5090885;28;20446;-77
2023/06/16 09:33:50;;;;;;;4.40;3.83;;;25.10;71.60;;;;;;5093287;28;20475;-76
2023/06/16 09:36:31;;;;;;;4.60;4.20;;;25.40;70.80;;;;;;5097619;28;20451;-77
2023/06/16 09:39:09;;;;;;;5.00;4.50;;;25.80;71.40;;;;;;5111058;28;20447;-78
2023/06/16 09:41:46;;;;;;;6.33;4.47;;;25.80;71.50;;;;;;5110568;28;20474;-77
2023/06/16 09:44:15;;;;;;;5.10;4.70;;;26.30;71.40;;;;;;5110378;28;20454;-76
2023/06/16 09:46:46;;;;;;;4.93;4.53;;;26.10;70.20;;;;;;5111429;28;20424;-77
2023/06/16 09:49:32;;;;;;;4.90;4.57;;;25.50;70.50;;;;;;5112197;28;20443;-76
2023/06/16 09:52:12;;;;;;;5.00;4.60;;;25.60;69.00;;;;;;5106903;28;20470;-77
2023/06/16 09:54:47;;;;;;;6.77;4.70;;;25.60;69.30;;;;;;5096459;28;20526;-77
2023/06/16 09:57:20;;;;;;;4.70;4.30;;;25.90;69.90;;;;;;5088739;28;20475;-76
2023/06/16 10:00:13;;;;;;;9.33;4.70;;;26.30;67.10;;;;;;5087283;28;20456;-77
2023/06/16 10:02:48;;;;;;;4.83;4.37;;;26.70;65.10;;;;;;5098096;28;20469;-79
2023/06/16 10:08:40;;;;;;;4.73;4.33;;;26.30;66.50;;;;;;5100045;28;20467;-77
2023/06/16 10:11:35;;;;;;;5.07;4.63;;;27.30;66.40;;;;;;5101770;28;20439;-78
2023/06/16 10:14:55;;;;;;;5.27;4.77;;;27.60;65.20;;;;;;5098358;28;20471;-78
2023/06/16 10:17:49;;;;;;;5.60;4.40;;;26.60;63.60;;;;;;5085552;28;20519;-78
2023/06/16 10:20:32;;;;;;;7.40;4.57;;;26.30;65.30;;;;;;5091599;28;20448;-75
2023/06/16 10:23:16;;;;;;;4.70;4.40;;;26.70;65.20;;;;;;5109450;28;20589;-77
2023/06/16 10:26:15;;;;;;;5.63;5.17;;;26.50;65.30;;;;;;5099930;28;20445;-77
2023/06/16 10:40:12;;;;;;;4.80;4.40;;;27.50;67.00;;;;;;4936461;28;20480;-78
2023/06/16 10:45:52;;;;;;;7.73;4.23;;;27.60;61.80;;;;;;5035041;28;20453;-80
2023/06/16 10:48:44;;;;;;;4.97;4.50;;;28.10;61.30;;;;;;5051800;28;20450;-79
2023/06/16 10:51:26;;;;;;;6.47;4.50;;;27.80;61.70;;;;;;5080066;28;20997;-76
2023/06/16 10:54:09;;;;;;;4.30;3.90;;;27.70;61.30;;;;;;5075758;28;20464;-79
2023/06/16 10:57:07;;;;;;;5.30;4.43;;;26.80;62.70;;;;;;5079579;28;20456;-80
2023/06/16 11:00:07;;;;;;;4.87;4.40;;;26.10;62.20;;;;;;5071526;28;20447;-79
2023/06/16 11:03:30;;;;;;;7.50;4.23;;;26.70;62.60;;;;;;5078884;28;20487;-77
2023/06/16 11:06:27;;;;;;;4.90;4.40;;;27.60;58.70;;;;;;4991349;28;20463;-77
2023/06/16 11:09:07;;;;;;;5.33;4.30;;;27.40;57.20;;;;;;5043873;28;20514;-77
2023/06/16 11:14:39;;;;;;;4.60;4.20;;;27.50;59.50;;;;;;5085832;28;20607;-79
2023/06/16 11:17:16;;;;;;;5.63;4.50;;;27.50;60.00;;;;;;5098837;28;20455;-77
2023/06/16 11:20:06;;;;;;;5.50;5.07;;;28.00;59.50;;;;;;5098604;28;20457;-80
2023/06/16 11:22:39;;;;;;;5.13;4.63;;;27.60;59.50;;;;;;5093087;28;20487;-78
2023/06/16 11:25:09;;;;;;;6.53;4.80;;;27.40;58.40;;;;;;5097627;28;21107;-78
2023/06/16 11:27:40;;;;;;;5.03;4.53;;;26.90;59.70;;;;;;5098044;28;20469;-79
2023/06/16 11:30:09;;;;;;;4.90;4.50;;;27.70;59.80;;;;;;5097012;28;20474;-78
2023/06/16 11:32:38;;;;;;;5.00;4.03;;;28.00;58.30;;;;;;5096727;28;20447;-79
2023/06/16 11:35:07;;;;;;;5.40;4.90;;;28.40;56.40;;;;;;5090306;28;20989;-77
2023/06/16 11:37:49;;;;;;;5.23;4.77;;;28.50;56.60;;;;;;5089414;28;20452;-78
2023/06/16 11:40:19;;;;;;;4.87;4.47;;;28.90;56.80;;;;;;5089226;28;20454;-77
2023/06/16 11:42:55;;;;;;;6.80;5.00;;;27.90;57.20;;;;;;5104717;28;20532;-77
2023/06/16 11:45:28;;;;;;;6.23;4.70;;;28.20;57.10;;;;;;5102014;28;20519;-78
2023/06/16 11:50:50;;;;;;;6.43;4.70;;;28.70;56.60;;;;;;5091471;28;20455;-79
2023/06/16 11:53:20;;;;;;;6.10;5.00;;;28.60;55.80;;;;;;5101584;28;20466;-77
2023/06/16 11:55:51;;;;;;;5.77;5.27;;;28.40;54.90;;;;;;5079456;28;21018;-77
2023/06/16 11:58:21;;;;;;;6.50;4.60;;;28.10;55.30;;;;;;5099727;28;20435;-77
2023/06/16 12:00:50;;;;;;;8.80;5.13;;;28.20;55.10;;;;;;5099685;28;20467;-77
2023/06/16 12:03:33;;;;;;;5.77;4.83;;;27.90;55.30;;;;;;5102812;28;20546;-77
2023/06/16 12:06:07;;;;;;;5.13;4.83;;;27.70;56.10;;;;;;5102719;28;20584;-78
2023/06/16 12:08:41;;;;;;;5.30;4.90;;;28.00;55.40;;;;;;5100647;28;21025;-78
2023/06/16 12:11:11;;;;;;;5.13;4.80;;;28.60;55.00;;;;;;5093998;28;20874;-77
2023/06/16 12:13:43;;;;;;;6.13;5.03;;;29.30;53.40;;;;;;5081425;28;20462;-77
2023/06/16 12:16:17;;;;;;;5.50;5.10;;;29.70;53.30;;;;;;5079136;28;20475;-77
2023/06/16 12:18:45;;;;;;;6.33;5.13;;;29.70;52.90;;;;;;5101276;28;20453;-79
2023/06/16 12:21:17;;;;;;;9.80;4.77;;;29.20;53.60;;;;;;5099808;28;20454;-79
2023/06/16 12:24:08;;;;;;;5.20;4.70;;;28.90;53.60;;;;;;5102692;28;20478;-78
2023/06/16 12:26:48;;;;;;;5.97;5.07;;;29.00;53.90;;;;;;5089741;28;20452;-77
2023/06/16 12:29:32;;;;;;;5.60;5.10;;;29.90;52.90;;;;;;5078779;28;20466;-78
2023/06/16 12:32:06;;;;;;;5.90;5.20;;;28.60;53.50;;;;;;5081677;28;20475;-79
2023/06/16 12:34:44;;;;;;;5.83;5.10;;;28.60;54.50;;;;;;5079816;28;20495;-78
2023/06/16 12:37:13;;;;;;;8.13;5.23;;;29.00;54.70;;;;;;5077973;28;20444;-80
2023/06/16 12:39:59;;;;;;;6.07;5.00;;;28.60;53.70;;;;;;5081575;28;21101;-78
2023/06/16 12:42:32;;;;;;;5.60;5.20;;;29.40;53.50;;;;;;5082865;28;20480;-79
2023/06/16 12:45:07;;;;;;;4.90;4.50;;;29.00;53.50;;;;;;5082281;28;20478;-78
2023/06/16 12:47:42;;;;;;;7.20;5.60;;;28.30;55.40;;;;;;5092409;28;20519;-80
2023/06/16 12:50:14;;;;;;;5.90;5.40;;;29.30;54.80;;;;;;5093091;28;20448;-78
2023/06/16 12:52:47;;;;;;;6.97;5.40;;;29.00;54.40;;;;;;5095966;28;20501;-78
2023/06/16 12:55:23;;;;;;;6.03;5.53;;;28.80;54.70;;;;;;5109824;28;20466;-78
2023/06/16 12:57:58;;;;;;;6.50;5.63;;;29.60;53.20;;;;;;5109941;28;20454;-78
2023/06/16 13:00:31;;;;;;;5.37;5.03;;;29.00;53.90;;;;;;5110830;28;20443;-78
2023/06/16 13:03:09;;;;;;;5.80;5.37;;;29.70;54.20;;;;;;5112223;28;20478;-76
2023/06/16 13:08:27;;;;;;;5.67;5.07;;;29.40;54.30;;;;;;5100039;28;20507;-78
2023/06/16 13:13:59;;;;;;;6.03;5.40;;;28.70;54.60;;;;;;5021461;28;20516;-78
2023/06/16 13:19:50;;;;;;;5.80;5.30;;;29.20;54.20;;;;;;5037715;28;20409;-78
2023/06/16 13:22:23;;;;;;;6.30;5.70;;;29.30;53.30;;;;;;5058921;28;20520;-77
2023/06/16 13:24:56;;;;;;;8.00;5.77;;;29.10;54.10;;;;;;5064466;28;20491;-78
2023/06/16 13:27:28;;;;;;;5.70;5.30;;;28.90;53.10;;;;;;5064586;28;20487;-79
2023/06/16 13:30:00;;;;;;;6.17;5.17;;;28.90;52.40;;;;;;5063516;28;20492;-77
2023/06/16 13:32:29;;;;;;;13.60;6.90;;;29.40;52.00;;;;;;5063586;28;20476;-78
2023/06/16 13:34:59;;;;;;;11.63;6.20;;;30.20;51.60;;;;;;5062632;28;20477;-78
2023/06/16 13:37:47;;;;;;;5.80;5.33;;;30.50;52.10;;;;;;5063670;28;20561;-79
2023/06/16 13:40:24;;;;;;;8.47;5.53;;;29.50;52.40;;;;;;5061234;28;20832;-79
2023/06/16 13:43:02;;;;;;;7.10;5.30;;;29.10;53.40;;;;;;5059995;28;20469;-79
2023/06/16 13:45:39;;;;;;;5.77;5.37;;;29.50;52.10;;;;;;5059668;28;20432;-79
2023/06/16 13:48:19;;;;;;;7.10;5.63;;;28.70;52.50;;;;;;5060380;28;20456;-79
2023/06/16 13:51:26;;;;;;;6.90;5.63;;;29.20;53.30;;;;;;5062922;28;20462;-80
2023/06/16 13:57:00;;;;;;;5.27;4.77;;;29.70;50.90;;;;;;5062926;28;20473;-79
2023/06/16 13:59:39;;;;;;;5.63;5.23;;;29.30;50.20;;;;;;5061912;28;20456;-77
2023/06/16 14:02:29;;;;;;;6.03;5.57;;;29.50;51.10;;;;;;5060250;28;20484;-78
2023/06/16 14:05:02;;;;;;;5.53;5.13;;;30.10;50.40;;;;;;5062077;28;20489;-79
2023/06/16 14:07:32;;;;;;;5.30;4.90;;;29.50;51.50;;;;;;5061865;28;20464;-79
2023/06/16 14:10:32;;;;;;;7.00;5.73;;;29.90;50.60;;;;;;5062273;28;20516;-77
2023/06/16 14:13:08;;;;;;;5.80;5.30;;;30.60;50.10;;;;;;5060090;28;20649;-78
2023/06/16 14:18:47;;;;;;;5.73;5.23;;;31.10;50.30;;;;;;5084717;28;20483;-78
2023/06/16 14:21:21;;;;;;;5.90;5.43;;;31.20;48.40;;;;;;5094662;28;20443;-80
2023/06/16 14:23:53;;;;;;;5.70;5.20;;;30.80;49.10;;;;;;5093469;28;20493;-77
2023/06/16 14:26:25;;;;;;;6.20;5.20;;;30.80;48.80;;;;;;5092433;28;20440;-78
2023/06/16 14:28:59;;;;;;;5.87;5.30;;;30.70;48.90;;;;;;5091148;28;20463;-77
2023/06/16 14:31:30;;;;;;;6.20;5.63;;;31.50;48.60;;;;;;5087308;28;20520;-77
2023/06/16 14:34:07;;;;;;;8.33;5.73;;;31.50;48.70;;;;;;5086813;28;20458;-79
2023/06/16 14:36:35;;;;;;;5.67;5.27;;;31.20;47.50;;;;;;5089288;28;20526;-80
2023/06/16 14:42:36;;;;;;;5.67;4.93;;;30.40;49.60;;;;;;5078421;28;20454;-79
2023/06/16 14:49:08;;;;;;;5.40;5.10;;;30.80;47.50;;;;;;5077374;28;20440;-77
2023/06/16 14:55:15;;;;;;;9.63;5.43;;;29.00;50.60;;;;;;5077407;28;20428;-78
2023/06/16 14:57:51;;;;;;;5.17;4.80;;;29.40;51.60;;;;;;5077403;28;20444;-78
2023/06/16 15:00:24;;;;;;;5.57;5.07;;;30.00;51.00;;;;;;5077370;28;20868;-78
2023/06/16 15:02:57;;;;;;;5.90;5.40;;;30.70;50.40;;;;;;5077485;28;20459;-79
2023/06/16 15:05:32;;;;;;;6.00;4.97;;;30.80;49.60;;;;;;5079171;28;20473;-78
2023/06/16 15:11:00;;;;;;;5.83;5.43;;;30.50;50.10;;;;;;5076480;28;20797;-79
2023/06/16 15:13:29;;;;;;;5.47;5.07;;;30.40;49.20;;;;;;5080745;28;20501;-78
2023/06/16 15:16:29;;;;;;;5.40;4.90;;;30.20;47.50;;;;;;5078297;28;20483;-78
2023/06/16 15:19:34;;;;;;;5.70;5.20;;;29.30;48.60;;;;;;5078377;28;20452;-78
2023/06/16 15:22:09;;;;;;;5.70;5.10;;;29.30;49.00;;;;;;5070197;28;20480;-78
2023/06/16 15:24:43;;;;;;;7.27;5.40;;;29.60;49.20;;;;;;5081112;28;20539;-79
2023/06/16 15:27:11;;;;;;;5.93;5.40;;;29.40;49.00;;;;;;5085700;28;20452;-80
2023/06/16 15:29:43;;;;;;;6.00;5.47;;;29.00;50.20;;;;;;5085682;28;20456;-79
2023/06/16 15:32:14;;;;;;;5.57;5.10;;;29.70;49.90;;;;;;5085892;28;20494;-78
2023/06/16 15:37:36;;;;;;;5.27;4.80;;;29.00;50.70;;;;;;5083012;28;20436;-79
2023/06/16 15:40:09;;;;;;;7.03;5.67;;;29.70;50.60;;;;;;5077116;28;20456;-79
2023/06/16 15:42:41;;;;;;;5.80;5.30;;;29.30;49.90;;;;;;5075791;28;20509;-78
2023/06/16 15:45:17;;;;;;;9.33;5.40;;;28.90;51.50;;;;;;5076735;28;20527;-78
2023/06/16 15:47:49;;;;;;;7.47;5.43;;;28.90;51.50;;;;;;5075637;28;20454;-78
2023/06/16 15:50:25;;;;;;;7.20;6.60;;;29.20;51.50;;;;;;5075561;28;21032;-80
2023/06/16 15:59:20;;;;;;;7.77;5.93;;;28.00;53.00;;;;;;5070743;28;20443;-80
2023/06/16 16:02:05;;;;;;;6.03;5.50;;;28.50;53.40;;;;;;5076185;28;20475;-79
2023/06/16 16:04:42;;;;;;;7.40;5.20;;;28.10;53.60;;;;;;5073878;28;20436;-78
2023/06/16 16:07:30;;;;;;;5.50;5.00;;;27.50;54.40;;;;;;5075328;28;20451;-78
2023/06/16 16:10:18;;;;;;;6.00;5.53;;;27.90;54.60;;;;;;5077798;28;20497;-78
2023/06/16 16:12:57;;;;;;;6.30;5.80;;;27.60;54.70;;;;;;5084890;28;20471;-79
2023/06/16 16:15:42;;;;;;;6.47;5.87;;;27.00;55.20;;;;;;5082187;28;20479;-78
2023/06/16 16:19:01;;;;;;;6.10;5.50;;;27.20;55.50;;;;;;5092986;28;20458;-78
2023/06/16 16:24:48;;;;;;;6.13;5.63;;;28.10;54.60;;;;;;5098989;28;20942;-78
2023/06/16 16:27:29;;;;;;;6.40;5.87;;;28.00;54.50;;;;;;5099520;28;20469;-78
2023/06/16 16:30:12;;;;;;;6.20;5.70;;;27.70;54.50;;;;;;5112178;28;20525;-78
2023/06/16 16:35:47;;;;;;;6.70;6.10;;;27.60;55.00;;;;;;5112264;28;20474;-79
2023/06/16 16:38:35;;;;;;;;;;;;;;;;;;;;;
2023/06/16 16:41:12;;;;;;;6.17;5.57;;;27.40;55.30;;;;;;5112335;28;20437;-78
2023/06/16 16:44:01;;;;;;;6.57;5.97;;;27.00;55.90;;;;;;5111081;28;20454;-80
2023/06/16 16:46:34;;;;;;;6.93;6.20;;;27.40;56.30;;;;;;5109457;28;20451;-78
2023/06/16 16:49:28;;;;;;;6.50;5.87;;;27.80;55.80;;;;;;5109987;28;20442;-79
2023/06/16 16:52:15;;;;;;;6.10;5.50;;;27.50;55.60;;;;;;5114411;28;20467;-79
2023/06/16 16:54:58;;;;;;;5.90;5.43;;;27.40;56.50;;;;;;5113650;28;20443;-78
2023/06/16 16:57:31;;;;;;;6.30;5.80;;;27.90;55.70;;;;;;5108528;28;20479;-78
2023/06/16 17:00:02;;;;;;;6.67;6.07;;;27.40;56.20;;;;;;5112874;28;20515;-79
2023/06/16 17:02:38;;;;;;;9.90;6.40;;;27.00;56.80;;;;;;5112141;28;20489;-79
2023/06/16 17:05:24;;;;;;;6.13;5.63;;;27.40;56.40;;;;;;5112318;28;20453;-78
2023/06/16 17:07:53;;;;;;;6.30;5.80;;;26.90;56.60;;;;;;5113074;28;20455;-77
2023/06/16 17:10:29;;;;;;;6.63;6.00;;;27.20;56.60;;;;;;5108802;28;21010;-78
2023/06/16 17:13:07;;;;;;;6.23;5.73;;;26.90;56.30;;;;;;5106104;28;20471;-78
2023/06/16 17:15:58;;;;;;;6.87;6.10;;;26.50;56.30;;;;;;5104981;28;20458;-79
2023/06/16 17:18:31;;;;;;;6.50;6.00;;;26.50;57.50;;;;;;5106361;28;20443;-78
2023/06/16 17:21:11;;;;;;;6.20;5.80;;;27.20;57.10;;;;;;5103316;28;20466;-79
2023/06/16 17:24:01;;;;;;;6.87;6.27;;;27.50;56.60;;;;;;5103071;28;20454;-77
2023/06/16 17:32:58;;;;;;;6.10;5.50;;;27.70;55.60;;;;;;5046281;28;20446;-75
2023/06/16 17:35:33;;;;;;;6.77;5.70;;;27.20;56.10;;;;;;5047172;28;20598;-79
2023/06/16 17:45:21;;;;;;;6.83;6.30;;;27.40;56.00;;;;;;4979898;28;20448;-79
2023/06/16 17:50:50;;;;;;;7.20;6.00;;;27.80;56.80;;;;;;5000925;28;20483;-79
2023/06/16 17:53:31;;;;;;;7.47;6.77;;;27.40;57.40;;;;;;5014336;28;20483;-77
2023/06/16 17:56:40;;;;;;;6.57;5.97;;;27.20;56.70;;;;;;5110009;28;20523;-78
2023/06/16 17:59:14;;;;;;;7.00;6.43;;;26.90;56.90;;;;;;5108925;28;20460;-78
2023/06/16 18:02:07;;;;;;;6.20;5.63;;;26.50;57.70;;;;;;5105356;28;20478;-78
2023/06/16 18:04:54;;;;;;;;;;;;;;;;;;;;;
2023/06/16 18:10:39;;;;;;;;;;;;;;;;;;;;;
2023/06/16 18:13:17;;;;;;;6.87;5.53;;;26.50;57.50;;;;;;5111718;28;20466;-79
2023/06/16 18:18:54;;;;;;;6.10;5.50;;;26.20;58.30;;;;;;5107308;28;20424;-78
2023/06/16 18:21:31;;;;;;;6.60;6.00;;;26.00;58.70;;;;;;5113646;28;21100;-79
2023/06/16 18:27:02;;;;;;;6.87;6.17;;;25.60;58.90;;;;;;5108146;28;20451;-79
2023/06/16 18:36:57;;;;;;;6.20;5.60;;;25.80;59.50;;;;;;4937380;28;20480;-78
2023/06/16 18:39:54;;;;;;;7.80;6.50;;;25.70;59.20;;;;;;4921822;29;20451;-79
2023/06/16 18:42:31;;;;;;;6.20;5.67;;;25.60;59.80;;;;;;4928661;28;20877;-77
2023/06/16 18:45:07;;;;;;;5.93;5.37;;;25.60;59.90;;;;;;5070673;28;20447;-79
2023/06/16 18:47:37;;;;;;;6.50;5.90;;;25.70;59.80;;;;;;5085521;28;20435;-77
2023/06/16 18:50:14;;;;;;;6.13;5.63;;;25.60;60.10;;;;;;5081013;28;20451;-76
2023/06/16 18:52:44;;;;;;;7.03;5.87;;;25.60;60.60;;;;;;5081615;28;20468;-77
2023/06/16 18:55:13;;;;;;;9.70;5.80;;;25.40;61.50;;;;;;5080780;28;20451;-77
2023/06/16 18:57:48;;;;;;;6.40;5.80;;;24.90;62.90;;;;;;5084056;28;20506;-78
2023/06/16 19:00:22;;;;;;;7.10;5.90;;;25.00;64.30;;;;;;5081512;28;20482;-79
2023/06/16 19:02:57;;;;;;;6.70;6.00;;;24.90;64.90;;;;;;5079564;28;20517;-80
2023/06/16 19:05:29;;;;;;;6.90;5.80;;;25.00;65.70;;;;;;5080590;28;20463;-81
2023/06/16 19:08:05;;;;;;;6.17;5.57;;;24.80;66.20;;;;;;5081317;28;20998;-80
2023/06/16 19:10:32;;;;;;;6.40;5.90;;;24.70;67.00;;;;;;5082152;28;20424;-79
2023/06/16 19:13:16;;;;;;;5.57;5.13;;;24.60;67.70;;;;;;5084774;28;20474;-80